KMKC

Charles B Wheeler Downtown Airport

Kansas City, Missouri, USA
METAR KMKC 231054Z 30011G21KT 10SM OVC017 00/M04 A3001 RMK AO2 SLP168 T00001039
Observed Flight Rules
Jan-23 @ 10:54 UTC (an hour ago) Marginal Visual Flight Rules
Wind Visibility Clouds
300° at 11 knots
 Gusting to 21 knots
10 miles
  • Overcast at 1,700' AGL
Temperatures Readings
Current 0°C / 32°F
Dewpoint -4°C / 25°F
Humidity 75%
Altimeter 30.01" Hg
Pressure 1016.8 hPa
Elevation 227
METAR KMKC 231054Z 30011G21KT 10SM OVC017 00/M04 A3001 RMK AO2 SLP168 T00001039
Observed Flight Rules
Jan-23 @ 10:54 UTC
(an hour ago)
MVFR
Wind Visibility
300° at 11 knots
 Gusting to 21 knots
10 miles
Clouds
  • Overcast at 1,700' AGL
Temperature Dewpoint
0°C / 32°F -4°C / 25°F
Humidity Altimeter Pressure
75% 30.01" Hg 1016.8 hPa